sensor_id;sensor_type;location;lat;lon;timestamp;pressure;altitude;pressure_sealevel;temperature;humidity
11345;BME280;5727;42.600;23.028;2023-04-19T00:01:06;93242.19;;;10.84;100.00
11345;BME280;5727;42.600;23.028;2023-04-19T00:03:33;93249.72;;;10.85;100.00
11345;BME280;5727;42.600;23.028;2023-04-19T00:06:01;93249.69;;;10.54;100.00
11345;BME280;5727;42.600;23.028;2023-04-19T00:08:28;93247.97;;;10.46;100.00
11345;BME280;5727;42.600;23.028;2023-04-19T00:10:55;93241.59;;;10.32;100.00
11345;BME280;5727;42.600;23.028;2023-04-19T00:13:22;93246.09;;;10.31;100.00
11345;BME280;5727;42.600;23.028;2023-04-19T00:15:49;93237.72;;;10.41;100.00
11345;BME280;5727;42.600;23.028;2023-04-19T00:18:15;93236.81;;;10.49;100.00
11345;BME280;5727;42.600;23.028;2023-04-19T00:20:43;93238.09;;;10.55;100.00
11345;BME280;5727;42.600;23.028;2023-04-19T00:23:11;93236.34;;;10.59;100.00
11345;BME280;5727;42.600;23.028;2023-04-19T00:25:38;93232.38;;;10.65;100.00
11345;BME280;5727;42.600;23.028;2023-04-19T00:28:04;93235.16;;;10.72;100.00
11345;BME280;5727;42.600;23.028;2023-04-19T00:30:31;93232.81;;;10.67;100.00
11345;BME280;5727;42.600;23.028;2023-04-19T00:32:58;93228.50;;;10.75;100.00
11345;BME280;5727;42.600;23.028;2023-04-19T00:35:24;93227.22;;;10.69;100.00
11345;BME280;5727;42.600;23.028;2023-04-19T00:37:51;93222.75;;;10.69;100.00
11345;BME280;5727;42.600;23.028;2023-04-19T00:40:19;93222.97;;;10.64;100.00
11345;BME280;5727;42.600;23.028;2023-04-19T00:42:46;93220.06;;;10.66;100.00
11345;BME280;5727;42.600;23.028;2023-04-19T00:45:13;93223.34;;;10.78;100.00
11345;BME280;5727;42.600;23.028;2023-04-19T00:47:40;93221.56;;;10.82;100.00
11345;BME280;5727;42.600;23.028;2023-04-19T00:50:08;93213.44;;;10.87;100.00
11345;BME280;5727;42.600;23.028;2023-04-19T00:52:35;93224.47;;;10.93;100.00
11345;BME280;5727;42.600;23.028;2023-04-19T00:55:03;93219.13;;;10.89;100.00
11345;BME280;5727;42.600;23.028;2023-04-19T00:57:31;93220.56;;;10.87;100.00
11345;BME280;5727;42.600;23.028;2023-04-19T00:59:59;93218.38;;;10.73;100.00
11345;BME280;5727;42.600;23.028;2023-04-19T01:02:26;93216.31;;;10.67;100.00
11345;BME280;5727;42.600;23.028;2023-04-19T01:04:53;93227.66;;;10.71;100.00
11345;BME280;5727;42.600;23.028;2023-04-19T01:07:20;93211.25;;;10.74;100.00
11345;BME280;5727;42.600;23.028;2023-04-19T01:09:46;93218.25;;;10.85;100.00
11345;BME280;5727;42.600;23.028;2023-04-19T01:12:13;93208.97;;;10.88;100.00
11345;BME280;5727;42.600;23.028;2023-04-19T01:14:41;93206.00;;;10.74;100.00
11345;BME280;5727;42.600;23.028;2023-04-19T01:17:09;93203.47;;;10.62;100.00
11345;BME280;5727;42.600;23.028;2023-04-19T01:19:37;93203.28;;;10.55;100.00
11345;BME280;5727;42.600;23.028;2023-04-19T01:22:04;93207.59;;;10.47;100.00
11345;BME280;5727;42.600;23.028;2023-04-19T01:24:32;93209.47;;;10.47;100.00
11345;BME280;5727;42.600;23.028;2023-04-19T01:26:59;93202.88;;;10.37;100.00
11345;BME280;5727;42.600;23.028;2023-04-19T01:29:26;93205.31;;;10.46;100.00
11345;BME280;5727;42.600;23.028;2023-04-19T01:31:53;93195.44;;;10.39;100.00
11345;BME280;5727;42.600;23.028;2023-04-19T01:34:20;93196.09;;;10.36;100.00
11345;BME280;5727;42.600;23.028;2023-04-19T01:36:47;93198.53;;;10.29;100.00
11345;BME280;5727;42.600;23.028;2023-04-19T01:39:14;93204.94;;;10.32;100.00
11345;BME280;5727;42.600;23.028;2023-04-19T01:41:42;93203.44;;;10.31;100.00
11345;BME280;5727;42.600;23.028;2023-04-19T01:44:09;93199.81;;;10.35;100.00
11345;BME280;5727;42.600;23.028;2023-04-19T01:46:35;93199.81;;;10.35;100.00
11345;BME280;5727;42.600;23.028;2023-04-19T01:49:03;93195.06;;;10.25;100.00
11345;BME280;5727;42.600;23.028;2023-04-19T01:51:29;93200.13;;;10.18;100.00
11345;BME280;5727;42.600;23.028;2023-04-19T01:53:56;93197.53;;;10.06;100.00
11345;BME280;5727;42.600;23.028;2023-04-19T01:56:23;93192.84;;;9.99;100.00
11345;BME280;5727;42.600;23.028;2023-04-19T01:58:51;93202.16;;;9.97;100.00
11345;BME280;5727;42.600;23.028;2023-04-19T02:01:18;93201.97;;;9.78;100.00
11345;BME280;5727;42.600;23.028;2023-04-19T02:03:45;93201.06;;;9.86;100.00
11345;BME280;5727;42.600;23.028;2023-04-19T02:06:12;93203.69;;;9.86;100.00
11345;BME280;5727;42.600;23.028;2023-04-19T02:08:40;93203.94;;;9.81;100.00
11345;BME280;5727;42.600;23.028;2023-04-19T02:11:07;93196.09;;;9.81;100.00
11345;BME280;5727;42.600;23.028;2023-04-19T02:13:34;93190.19;;;9.84;100.00
11345;BME280;5727;42.600;23.028;2023-04-19T02:16:03;93195.56;;;9.75;100.00
11345;BME280;5727;42.600;23.028;2023-04-19T02:18:30;93198.72;;;9.69;100.00
11345;BME280;5727;42.600;23.028;2023-04-19T02:20:57;93199.31;;;9.62;100.00
11345;BME280;5727;42.600;23.028;2023-04-19T02:23:24;93197.91;;;9.53;100.00
11345;BME280;5727;42.600;23.028;2023-04-19T02:25:51;93199.59;;;9.33;100.00
11345;BME280;5727;42.600;23.028;2023-04-19T02:28:18;93193.81;;;9.28;100.00
11345;BME280;5727;42.600;23.028;2023-04-19T02:30:45;93197.50;;;9.27;100.00
11345;BME280;5727;42.600;23.028;2023-04-19T02:33:13;93194.47;;;9.24;100.00
11345;BME280;5727;42.600;23.028;2023-04-19T02:35:40;93195.56;;;9.23;100.00
11345;BME280;5727;42.600;23.028;2023-04-19T02:38:07;93194.06;;;9.10;100.00
11345;BME280;5727;42.600;23.028;2023-04-19T02:40:34;93194.78;;;9.11;100.00
11345;BME280;5727;42.600;23.028;2023-04-19T02:43:00;93185.34;;;9.06;100.00
11345;BME280;5727;42.600;23.028;2023-04-19T02:45:28;93192.94;;;9.23;100.00
11345;BME280;5727;42.600;23.028;2023-04-19T02:47:59;93192.69;;;9.41;100.00
11345;BME280;5727;42.600;23.028;2023-04-19T02:50:27;93196.56;;;9.59;100.00
11345;BME280;5727;42.600;23.028;2023-04-19T02:52:56;93195.03;;;9.70;100.00
11345;BME280;5727;42.600;23.028;2023-04-19T02:55:23;93192.50;;;9.85;100.00
11345;BME280;5727;42.600;23.028;2023-04-19T02:57:50;93192.31;;;9.94;100.00
11345;BME280;5727;42.600;23.028;2023-04-19T03:00:17;93190.75;;;10.05;100.00
11345;BME280;5727;42.600;23.028;2023-04-19T03:02:44;93193.59;;;10.12;100.00
11345;BME280;5727;42.600;23.028;2023-04-19T03:05:11;93193.53;;;10.24;100.00
11345;BME280;5727;42.600;23.028;2023-04-19T03:07:39;93200.38;;;10.29;100.00
11345;BME280;5727;42.600;23.028;2023-04-19T03:10:07;93197.50;;;10.34;100.00
11345;BME280;5727;42.600;23.028;2023-04-19T03:12:34;93201.06;;;10.41;100.00
11345;BME280;5727;42.600;23.028;2023-04-19T03:15:00;93200.84;;;10.46;100.00
11345;BME280;5727;42.600;23.028;2023-04-19T03:17:27;93207.69;;;10.51;100.00
11345;BME280;5727;42.600;23.028;2023-04-19T03:19:54;93198.81;;;10.55;100.00
11345;BME280;5727;42.600;23.028;2023-04-19T03:22:21;93195.13;;;10.56;100.00
11345;BME280;5727;42.600;23.028;2023-04-19T03:24:50;93196.53;;;10.54;100.00
11345;BME280;5727;42.600;23.028;2023-04-19T03:27:16;93196.53;;;10.54;100.00
11345;BME280;5727;42.600;23.028;2023-04-19T03:29:43;93207.69;;;10.51;100.00
11345;BME280;5727;42.600;23.028;2023-04-19T03:32:10;93195.09;;;10.41;100.00
11345;BME280;5727;42.600;23.028;2023-04-19T03:34:37;93199.09;;;10.23;100.00
11345;BME280;5727;42.600;23.028;2023-04-19T03:37:04;93204.16;;;10.16;100.00
11345;BME280;5727;42.600;23.028;2023-04-19T03:39:30;93199.28;;;10.14;100.00
11345;BME280;5727;42.600;23.028;2023-04-19T03:41:58;93211.50;;;10.10;100.00
11345;BME280;5727;42.600;23.028;2023-04-19T03:44:25;93203.41;;;10.03;100.00
11345;BME280;5727;42.600;23.028;2023-04-19T03:46:52;93204.66;;;9.93;100.00
11345;BME280;5727;42.600;23.028;2023-04-19T03:49:19;93204.88;;;9.88;100.00
11345;BME280;5727;42.600;23.028;2023-04-19T03:51:46;93197.50;;;9.78;100.00
11345;BME280;5727;42.600;23.028;2023-04-19T03:54:12;93203.78;;;9.62;100.00
11345;BME280;5727;42.600;23.028;2023-04-19T03:56:39;93198.91;;;9.24;100.00
11345;BME280;5727;42.600;23.028;2023-04-19T03:59:08;93195.56;;;9.23;100.00
11345;BME280;5727;42.600;23.028;2023-04-19T04:01:35;93203.16;;;9.29;100.00
11345;BME280;5727;42.600;23.028;2023-04-19T04:04:06;93197.59;;;9.30;100.00
11345;BME280;5727;42.600;23.028;2023-04-19T04:06:32;93197.19;;;9.28;100.00
11345;BME280;5727;42.600;23.028;2023-04-19T04:08:59;93206.03;;;9.23;100.00
11345;BME280;5727;42.600;23.028;2023-04-19T04:11:26;93199.91;;;9.07;100.00
11345;BME280;5727;42.600;23.028;2023-04-19T04:13:54;93203.84;;;8.89;100.00
11345;BME280;5727;42.600;23.028;2023-04-19T04:16:22;93199.47;;;8.93;100.00
11345;BME280;5727;42.600;23.028;2023-04-19T04:18:49;93204.59;;;8.90;100.00
11345;BME280;5727;42.600;23.028;2023-04-19T04:21:15;93204.59;;;9.02;100.00
11345;BME280;5727;42.600;23.028;2023-04-19T04:23:42;93204.28;;;8.91;100.00
11345;BME280;5727;42.600;23.028;2023-04-19T04:26:09;93212.53;;;8.93;100.00
11345;BME280;5727;42.600;23.028;2023-04-19T04:28:38;93207.53;;;8.88;100.00
11345;BME280;5727;42.600;23.028;2023-04-19T04:31:05;93201.91;;;8.98;100.00
11345;BME280;5727;42.600;23.028;2023-04-19T04:33:33;93211.13;;;8.96;100.00
11345;BME280;5727;42.600;23.028;2023-04-19T04:36:00;93208.63;;;8.99;100.00
11345;BME280;5727;42.600;23.028;2023-04-19T04:38:27;93211.91;;;8.84;100.00
11345;BME280;5727;42.600;23.028;2023-04-19T04:40:54;93211.78;;;9.05;100.00
11345;BME280;5727;42.600;23.028;2023-04-19T04:43:23;93207.75;;;9.07;100.00
11345;BME280;5727;42.600;23.028;2023-04-19T04:45:53;93209.28;;;9.20;100.00
11345;BME280;5727;42.600;23.028;2023-04-19T04:48:22;93213.53;;;9.37;100.00
11345;BME280;5727;42.600;23.028;2023-04-19T04:50:50;93214.78;;;9.55;100.00
11345;BME280;5727;42.600;23.028;2023-04-19T04:53:17;93212.34;;;9.74;100.00
11345;BME280;5727;42.600;23.028;2023-04-19T04:55:43;93213.41;;;9.85;100.00
11345;BME280;5727;42.600;23.028;2023-04-19T04:58:10;93212.19;;;9.95;100.00
11345;BME280;5727;42.600;23.028;2023-04-19T05:00:37;93214.56;;;10.00;100.00
11345;BME280;5727;42.600;23.028;2023-04-19T05:03:03;93203.81;;;10.17;100.00
11345;BME280;5727;42.600;23.028;2023-04-19T05:05:30;93216.78;;;10.26;100.00
11345;BME280;5727;42.600;23.028;2023-04-19T05:07:58;93215.41;;;10.32;100.00
11345;BME280;5727;42.600;23.028;2023-04-19T05:10:25;93215.78;;;10.46;100.00
11345;BME280;5727;42.600;23.028;2023-04-19T05:12:52;93222.03;;;10.57;100.00
11345;BME280;5727;42.600;23.028;2023-04-19T05:15:19;93220.38;;;10.64;100.00
11345;BME280;5727;42.600;23.028;2023-04-19T05:17:45;93220.28;;;10.76;100.00
11345;BME280;5727;42.600;23.028;2023-04-19T05:20:12;93221.31;;;10.87;100.00
11345;BME280;5727;42.600;23.028;2023-04-19T05:22:39;93219.81;;;10.86;100.00
11345;BME280;5727;42.600;23.028;2023-04-19T05:25:09;93219.22;;;10.77;100.00
11345;BME280;5727;42.600;23.028;2023-04-19T05:27:36;93222.97;;;10.64;100.00
11345;BME280;5727;42.600;23.028;2023-04-19T05:30:03;93227.19;;;10.53;100.00
11345;BME280;5727;42.600;23.028;2023-04-19T05:32:31;93222.72;;;10.54;100.00
11345;BME280;5727;42.600;23.028;2023-04-19T05:34:57;93215.56;;;10.66;100.00
11345;BME280;5727;42.600;23.028;2023-04-19T05:37:24;93223.41;;;10.82;100.00
11345;BME280;5727;42.600;23.028;2023-04-19T05:39:54;93227.47;;;10.95;100.00
11345;BME280;5727;42.600;23.028;2023-04-19T05:42:22;93212.84;;;11.10;100.00
11345;BME280;5727;42.600;23.028;2023-04-19T05:44:49;93221.22;;;11.15;100.00
11345;BME280;5727;42.600;23.028;2023-04-19T05:47:16;93230.53;;;11.13;100.00
11345;BME280;5727;42.600;23.028;2023-04-19T05:49:42;93232.13;;;11.17;100.00
11345;BME280;5727;42.600;23.028;2023-04-19T05:52:10;93230.28;;;11.18;100.00
11345;BME280;5727;42.600;23.028;2023-04-19T05:54:37;93231.13;;;11.22;100.00
11345;BME280;5727;42.600;23.028;2023-04-19T05:57:04;93224.69;;;11.03;100.00
11345;BME280;5727;42.600;23.028;2023-04-19T05:59:32;93234.19;;;11.08;100.00
11345;BME280;5727;42.600;23.028;2023-04-19T06:01:59;93228.31;;;10.99;100.00
11345;BME280;5727;42.600;23.028;2023-04-19T06:04:26;93229.16;;;10.87;100.00
11345;BME280;5727;42.600;23.028;2023-04-19T06:06:53;93225.47;;;11.04;100.00
11345;BME280;5727;42.600;23.028;2023-04-19T06:09:20;93234.91;;;11.24;100.00
11345;BME280;5727;42.600;23.028;2023-04-19T06:11:46;93234.97;;;11.28;100.00
11345;BME280;5727;42.600;23.028;2023-04-19T06:14:13;93229.41;;;11.45;100.00
11345;BME280;5727;42.600;23.028;2023-04-19T06:16:41;93224.31;;;11.52;100.00
11345;BME280;5727;42.600;23.028;2023-04-19T06:19:08;93236.78;;;11.74;100.00
11345;BME280;5727;42.600;23.028;2023-04-19T06:21:35;93231.97;;;11.95;100.00
11345;BME280;5727;42.600;23.028;2023-04-19T06:24:01;93232.97;;;12.06;100.00
11345;BME280;5727;42.600;23.028;2023-04-19T06:26:28;93243.47;;;12.06;100.00
11345;BME280;5727;42.600;23.028;2023-04-19T06:28:55;93240.06;;;12.06;100.00
11345;BME280;5727;42.600;23.028;2023-04-19T06:31:22;93243.66;;;12.17;100.00
11345;BME280;5727;42.600;23.028;2023-04-19T06:33:50;93241.81;;;12.36;100.00
11345;BME280;5727;42.600;23.028;2023-04-19T06:36:16;93242.75;;;12.47;100.00
11345;BME280;5727;42.600;23.028;2023-04-19T06:38:43;93245.59;;;12.39;100.00
11345;BME280;5727;42.600;23.028;2023-04-19T06:41:10;93249.13;;;12.27;100.00
11345;BME280;5727;42.600;23.028;2023-04-19T06:43:37;93248.22;;;12.39;100.00
11345;BME280;5727;42.600;23.028;2023-04-19T06:46:05;93251.91;;;12.15;100.00
11345;BME280;5727;42.600;23.028;2023-04-19T06:48:33;93253.63;;;12.27;100.00
11345;BME280;5727;42.600;23.028;2023-04-19T06:51:01;93252.09;;;12.07;100.00
11345;BME280;5727;42.600;23.028;2023-04-19T06:53:28;93252.03;;;12.22;100.00
11345;BME280;5727;42.600;23.028;2023-04-19T06:55:57;93248.97;;;12.39;100.00
11345;BME280;5727;42.600;23.028;2023-04-19T06:58:25;93257.31;;;12.45;100.00
11345;BME280;5727;42.600;23.028;2023-04-19T07:00:52;93255.47;;;12.45;100.00
11345;BME280;5727;42.600;23.028;2023-04-19T07:03:19;93257.19;;;12.57;100.00
11345;BME280;5727;42.600;23.028;2023-04-19T07:05:47;93257.31;;;12.45;100.00
11345;BME280;5727;42.600;23.028;2023-04-19T07:08:18;93253.75;;;12.34;100.00
11345;BME280;5727;42.600;23.028;2023-04-19T07:10:44;93264.91;;;12.27;100.00
11345;BME280;5727;42.600;23.028;2023-04-19T07:13:11;93258.25;;;12.52;100.00
11345;BME280;5727;42.600;23.028;2023-04-19T07:15:38;93262.34;;;12.72;100.00
11345;BME280;5727;42.600;23.028;2023-04-19T07:18:05;93263.66;;;12.82;100.00
11345;BME280;5727;42.600;23.028;2023-04-19T07:20:31;93258.69;;;13.00;100.00
11345;BME280;5727;42.600;23.028;2023-04-19T07:22:58;93259.78;;;13.18;100.00
11345;BME280;5727;42.600;23.028;2023-04-19T07:25:26;93266.38;;;12.89;100.00
11345;BME280;5727;42.600;23.028;2023-04-19T07:27:53;93267.19;;;12.70;100.00
11345;BME280;5727;42.600;23.028;2023-04-19T07:30:21;93259.06;;;12.56;100.00
11345;BME280;5727;42.600;23.028;2023-04-19T07:32:48;93258.66;;;12.54;100.00
11345;BME280;5727;42.600;23.028;2023-04-19T07:35:15;93253.78;;;12.75;100.00
11345;BME280;5727;42.600;23.028;2023-04-19T07:37:43;93252.59;;;13.15;100.00
11345;BME280;5727;42.600;23.028;2023-04-19T07:40:11;93256.03;;;13.19;100.00
11345;BME280;5727;42.600;23.028;2023-04-19T07:42:39;93254.00;;;13.09;100.00
11345;BME280;5727;42.600;23.028;2023-04-19T07:45:06;93259.66;;;13.11;100.00
11345;BME280;5727;42.600;23.028;2023-04-19T07:47:33;93264.75;;;13.23;100.00
11345;BME280;5727;42.600;23.028;2023-04-19T07:50:00;93263.09;;;13.37;100.00
11345;BME280;5727;42.600;23.028;2023-04-19T07:52:27;93272.69;;;13.26;100.00
11345;BME280;5727;42.600;23.028;2023-04-19T07:54:54;93264.91;;;13.11;100.00
11345;BME280;5727;42.600;23.028;2023-04-19T07:57:21;93251.78;;;12.92;100.00
11345;BME280;5727;42.600;23.028;2023-04-19T07:59:49;93263.47;;;13.13;100.00
11345;BME280;5727;42.600;23.028;2023-04-19T08:02:16;93260.13;;;13.39;100.00
11345;BME280;5727;42.600;23.028;2023-04-19T08:04:44;93258.81;;;13.52;100.00
11345;BME280;5727;42.600;23.028;2023-04-19T08:07:12;93250.53;;;13.27;100.00
11345;BME280;5727;42.600;23.028;2023-04-19T08:09:39;93253.41;;;13.19;100.00
11345;BME280;5727;42.600;23.028;2023-04-19T08:12:06;93255.03;;;13.27;100.00
11345;BME280;5727;42.600;23.028;2023-04-19T08:14:32;93261.22;;;13.38;100.00
11345;BME280;5727;42.600;23.028;2023-04-19T08:17:01;93250.78;;;13.19;100.00
11345;BME280;5727;42.600;23.028;2023-04-19T08:19:29;93255.66;;;13.43;100.00
11345;BME280;5727;42.600;23.028;2023-04-19T08:21:56;93258.94;;;13.36;100.00
11345;BME280;5727;42.600;23.028;2023-04-19T08:24:22;93259.19;;;13.50;100.00
11345;BME280;5727;42.600;23.028;2023-04-19T08:26:49;93256.97;;;13.82;100.00
11345;BME280;5727;42.600;23.028;2023-04-19T08:29:18;93264.84;;;13.78;100.00
11345;BME280;5727;42.600;23.028;2023-04-19T08:31:46;93263.72;;;13.79;100.00
11345;BME280;5727;42.600;23.028;2023-04-19T08:34:14;93254.31;;;13.78;100.00
11345;BME280;5727;42.600;23.028;2023-04-19T08:36:41;93241.75;;;13.68;100.00
11345;BME280;5727;42.600;23.028;2023-04-19T08:39:07;93252.69;;;13.44;100.00
11345;BME280;5727;42.600;23.028;2023-04-19T08:41:34;93251.09;;;13.14;100.00
11345;BME280;5727;42.600;23.028;2023-04-19T08:44:02;93247.66;;;12.91;100.00
11345;BME280;5727;42.600;23.028;2023-04-19T08:46:30;93238.50;;;13.04;100.00
11345;BME280;5727;42.600;23.028;2023-04-19T08:48:58;93242.81;;;13.38;100.00
11345;BME280;5727;42.600;23.028;2023-04-19T08:51:27;93242.56;;;13.46;100.00
11345;BME280;5727;42.600;23.028;2023-04-19T08:53:55;93246.78;;;13.28;100.00
11345;BME280;5727;42.600;23.028;2023-04-19T08:56:23;93244.13;;;13.51;100.00
11345;BME280;5727;42.600;23.028;2023-04-19T08:58:50;93243.31;;;13.73;100.00
11345;BME280;5727;42.600;23.028;2023-04-19T09:01:17;93242.47;;;13.65;100.00
11345;BME280;5727;42.600;23.028;2023-04-19T09:03:44;93239.00;;;13.88;100.00
11345;BME280;5727;42.600;23.028;2023-04-19T09:06:11;93254.59;;;13.73;100.00
11345;BME280;5727;42.600;23.028;2023-04-19T09:08:39;93244.34;;;13.65;100.00
11345;BME280;5727;42.600;23.028;2023-04-19T09:11:07;93247.16;;;13.53;100.00
11345;BME280;5727;42.600;23.028;2023-04-19T09:13:34;93247.97;;;13.31;100.00
11345;BME280;5727;42.600;23.028;2023-04-19T09:16:03;93245.28;;;13.53;100.00
11345;BME280;5727;42.600;23.028;2023-04-19T09:18:32;93239.13;;;13.20;100.00
11345;BME280;5727;42.600;23.028;2023-04-19T09:20:59;93242.91;;;13.45;100.00
11345;BME280;5727;42.600;23.028;2023-04-19T09:23:27;93236.03;;;13.63;100.00
11345;BME280;5727;42.600;23.028;2023-04-19T09:25:56;93234.56;;;13.95;100.00
11345;BME280;5727;42.600;23.028;2023-04-19T09:28:24;93236.31;;;14.43;98.77
11345;BME280;5727;42.600;23.028;2023-04-19T09:30:51;93232.78;;;14.29;95.45
11345;BME280;5727;42.600;23.028;2023-04-19T09:33:33;93242.31;;;14.40;94.59
11345;BME280;5727;42.600;23.028;2023-04-19T09:36:01;93241.88;;;14.35;94.68
11345;BME280;5727;42.600;23.028;2023-04-19T09:38:28;93239.28;;;14.38;95.54
11345;BME280;5727;42.600;23.028;2023-04-19T09:41:08;93243.84;;;14.45;94.76
11345;BME280;5727;42.600;23.028;2023-04-19T09:43:35;93235.66;;;14.20;95.15
11345;BME280;5727;42.600;23.028;2023-04-19T09:46:02;93229.53;;;14.42;96.19
11345;BME280;5727;42.600;23.028;2023-04-19T09:48:29;93235.25;;;14.48;94.16
11345;BME280;5727;42.600;23.028;2023-04-19T09:50:57;93241.47;;;14.69;92.90
11345;BME280;5727;42.600;23.028;2023-04-19T09:53:25;93234.50;;;14.51;91.50
11345;BME280;5727;42.600;23.028;2023-04-19T09:55:52;93238.09;;;14.32;92.67
11345;BME280;5727;42.600;23.028;2023-04-19T09:58:21;93226.19;;;14.45;91.72
11345;BME280;5727;42.600;23.028;2023-04-19T10:00:48;93225.72;;;14.73;88.31
11345;BME280;5727;42.600;23.028;2023-04-19T10:03:17;93230.81;;;14.96;87.18
11345;BME280;5727;42.600;23.028;2023-04-19T10:05:44;93228.97;;;14.59;87.16
11345;BME280;5727;42.600;23.028;2023-04-19T10:08:12;93226.84;;;14.39;89.10
11345;BME280;5727;42.600;23.028;2023-04-19T10:10:39;93230.84;;;13.96;92.59
11345;BME280;5727;42.600;23.028;2023-04-19T10:13:07;93230.06;;;13.96;93.97
11345;BME280;5727;42.600;23.028;2023-04-19T10:15:38;93217.28;;;13.94;93.26
11345;BME280;5727;42.600;23.028;2023-04-19T10:18:07;93217.53;;;14.15;93.64
11345;BME280;5727;42.600;23.028;2023-04-19T10:20:40;93221.28;;;14.14;92.75
11345;BME280;5727;42.600;23.028;2023-04-19T10:23:11;93217.81;;;14.36;90.48
11345;BME280;5727;42.600;23.028;2023-04-19T10:25:38;93207.69;;;14.79;90.19
11345;BME280;5727;42.600;23.028;2023-04-19T10:28:05;93209.13;;;15.16;84.47
11345;BME280;5727;42.600;23.028;2023-04-19T10:30:31;93207.22;;;15.61;85.23
11345;BME280;5727;42.600;23.028;2023-04-19T10:33:00;93216.19;;;15.49;78.41
11345;BME280;5727;42.600;23.028;2023-04-19T10:35:33;93209.94;;;14.77;83.59
11345;BME280;5727;42.600;23.028;2023-04-19T10:38:03;93204.47;;;14.99;84.14
11345;BME280;5727;42.600;23.028;2023-04-19T10:40:53;93204.13;;;15.04;82.16
11345;BME280;5727;42.600;23.028;2023-04-19T10:43:21;93196.06;;;15.30;82.19
11345;BME280;5727;42.600;23.028;2023-04-19T10:45:48;93198.50;;;15.56;76.15
11345;BME280;5727;42.600;23.028;2023-04-19T10:48:52;93200.50;;;15.77;75.50
11345;BME280;5727;42.600;23.028;2023-04-19T10:51:21;93195.78;;;16.11;76.48
11345;BME280;5727;42.600;23.028;2023-04-19T10:53:54;93195.81;;;16.21;71.93
11345;BME280;5727;42.600;23.028;2023-04-19T10:56:58;93187.44;;;16.02;72.67
11345;BME280;5727;42.600;23.028;2023-04-19T10:59:28;93186.56;;;15.73;74.88
11345;BME280;5727;42.600;23.028;2023-04-19T11:01:56;93190.06;;;15.37;74.77
11345;BME280;5727;42.600;23.028;2023-04-19T11:07:40;93195.59;;;14.74;79.66
11345;BME280;5727;42.600;23.028;2023-04-19T11:10:08;93191.38;;;14.69;81.71
11345;BME280;5727;42.600;23.028;2023-04-19T11:12:35;93186.22;;;14.80;79.13
11345;BME280;5727;42.600;23.028;2023-04-19T11:15:04;93190.72;;;14.80;77.71
11345;BME280;5727;42.600;23.028;2023-04-19T11:17:33;93188.28;;;15.01;76.81
11345;BME280;5727;42.600;23.028;2023-04-19T11:20:04;93193.63;;;15.08;76.09
11345;BME280;5727;42.600;23.028;2023-04-19T11:22:33;93188.09;;;14.80;74.83
11345;BME280;5727;42.600;23.028;2023-04-19T11:25:06;93179.19;;;14.95;76.41
11345;BME280;5727;42.600;23.028;2023-04-19T11:27:33;93177.44;;;15.09;75.92
11345;BME280;5727;42.600;23.028;2023-04-19T11:30:04;93191.97;;;14.93;74.25
11345;BME280;5727;42.600;23.028;2023-04-19T11:32:31;93196.03;;;14.83;76.02
11345;BME280;5727;42.600;23.028;2023-04-19T11:35:03;93182.91;;;14.46;79.31
11345;BME280;5727;42.600;23.028;2023-04-19T11:37:32;93185.00;;;14.71;77.97
11345;BME280;5727;42.600;23.028;2023-04-19T11:39:59;93194.50;;;14.38;79.86
11345;BME280;5727;42.600;23.028;2023-04-19T11:42:27;93180.06;;;14.65;79.95
11345;BME280;5727;42.600;23.028;2023-04-19T11:44:54;93198.19;;;14.71;77.59
11345;BME280;5727;42.600;23.028;2023-04-19T11:47:22;93187.53;;;14.60;76.24
11345;BME280;5727;42.600;23.028;2023-04-19T11:49:49;93190.41;;;14.85;75.94
11345;BME280;5727;42.600;23.028;2023-04-19T11:52:20;93182.25;;;15.51;74.17
11345;BME280;5727;42.600;23.028;2023-04-19T11:54:48;93184.56;;;16.38;67.15
11345;BME280;5727;42.600;23.028;2023-04-19T11:57:27;93183.44;;;15.61;71.73
11345;BME280;5727;42.600;23.028;2023-04-19T12:00:05;93196.41;;;14.82;77.50
11345;BME280;5727;42.600;23.028;2023-04-19T12:02:37;93182.94;;;14.94;78.47
11345;BME280;5727;42.600;23.028;2023-04-19T12:05:11;93187.91;;;15.46;73.56
11345;BME280;5727;42.600;23.028;2023-04-19T12:07:57;93189.84;;;16.38;67.60
11345;BME280;5727;42.600;23.028;2023-04-19T12:10:23;93173.94;;;16.28;66.58
11345;BME280;5727;42.600;23.028;2023-04-19T12:12:51;93171.72;;;16.47;66.78
11345;BME280;5727;42.600;23.028;2023-04-19T12:15:18;93176.00;;;17.51;64.55
11345;BME280;5727;42.600;23.028;2023-04-19T12:17:58;93174.84;;;16.78;63.76
11345;BME280;5727;42.600;23.028;2023-04-19T12:20:30;93173.31;;;17.79;62.31
11345;BME280;5727;42.600;23.028;2023-04-19T12:22:57;93168.78;;;16.74;66.64
11345;BME280;5727;42.600;23.028;2023-04-19T12:25:27;93175.94;;;16.63;64.97
11345;BME280;5727;42.600;23.028;2023-04-19T12:27:55;93175.78;;;16.13;66.58
11345;BME280;5727;42.600;23.028;2023-04-19T12:30:22;93175.97;;;17.33;62.55
11345;BME280;5727;42.600;23.028;2023-04-19T12:32:50;93168.69;;;18.00;57.03
11345;BME280;5727;42.600;23.028;2023-04-19T12:35:19;93148.22;;;18.01;55.44
11345;BME280;5727;42.600;23.028;2023-04-19T12:37:46;93143.47;;;19.53;50.19
11345;BME280;5727;42.600;23.028;2023-04-19T12:40:14;93141.09;;;20.60;47.27
11345;BME280;5727;42.600;23.028;2023-04-19T12:42:40;93146.53;;;20.53;46.54
11345;BME280;5727;42.600;23.028;2023-04-19T12:45:10;93145.38;;;20.24;49.31
11345;BME280;5727;42.600;23.028;2023-04-19T12:47:37;93145.06;;;20.75;48.54
11345;BME280;5727;42.600;23.028;2023-04-19T12:50:06;93140.88;;;21.27;47.44
11345;BME280;5727;42.600;23.028;2023-04-19T12:52:33;93148.84;;;20.17;50.90
11345;BME280;5727;42.600;23.028;2023-04-19T12:55:00;93155.47;;;17.93;61.09
11345;BME280;5727;42.600;23.028;2023-04-19T12:57:27;93162.78;;;17.15;64.53
11345;BME280;5727;42.600;23.028;2023-04-19T12:59:54;93150.59;;;17.64;62.84
11345;BME280;5727;42.600;23.028;2023-04-19T13:02:22;93152.53;;;17.53;63.01